To NAV CANADA Home Page Login to a new session Search on AWWS site Disclaimer Vers la page française équivalente Tips FAQ What's new on the site To the Forecasts and Observations / NOTAM section To "File a Flight Plan" website Publications and other links Update of the User's profile FIC Telephone Numbers My Weather Data Folder Route Weather Data Regional Weather Data Local Weather Data To the Forecasts and Observations / NOTAM section
Request Generated 11/16/2018 at 01:07:50 UTC . Weather information available at that time is displayed.

METAR/TAF

GERALDTON (GREENSTONE REGIONAL)/ON    

METAR CYGQ 160100Z 19004KT 2SM -SN OVC035 M01/M02 A2973 RMK SN2SC6 SLP088=
METAR CYGQ 160000Z 19004KT 140V200 3SM -SN OVC035 M01/M03 A2974 RMK SC8 SLP090=
SPECI CYGQ 152349Z 18004KT 3SM -SN OVC036 M00/M03 A2974 RMK SC8 SLP090=
SPECI CYGQ 152338Z 18003KT 10SM -SN OVC034 M00/M03 A2974 RMK SC8 SLP090=
METAR CYGQ 152300Z 19005KT 15SM OVC030 M00/M03 A2974 RMK SC8 SLP090=

TAF CYGQ 151941Z 1520/1608 20010KT P6SM OVC025 TEMPO 1520/1524 3SM
-SN OVC015
FM160000 19005KT 11/2SM -SN OVC015 TEMPO 1600/1604 4SM -SN OVC025
FM160400 VRB03KT 2SM -SN OVC020 TEMPO 1604/1608 6SM -SN OVC030
RMK NXT FCST BY 160200Z=
Your time UTC time
Weather data provided by Environment Canada and NAV CANADA